sensor_id;sensor_type;location;lat;lon;timestamp;pressure;altitude;pressure_sealevel;temperature;humidity
77013;BME280;65946;53.130;17.982;2023-01-09T00:00:44;100043.34;;;5.60;80.57
77013;BME280;65946;53.130;17.982;2023-01-09T00:03:22;100041.78;;;5.63;80.26
77013;BME280;65946;53.130;17.982;2023-01-09T00:05:49;100039.10;;;5.63;80.28
77013;BME280;65946;53.130;17.982;2023-01-09T00:08:15;100037.21;;;5.59;80.27
77013;BME280;65946;53.130;17.982;2023-01-09T00:10:43;100035.08;;;5.55;80.16
77013;BME280;65946;53.130;17.982;2023-01-09T00:13:12;100025.77;;;5.57;80.35
77013;BME280;65946;53.130;17.982;2023-01-09T00:15:40;100022.38;;;5.57;80.14
77013;BME280;65946;53.130;17.982;2023-01-09T00:18:06;100026.50;;;5.58;80.16
77013;BME280;65946;53.130;17.982;2023-01-09T00:20:34;100026.55;;;5.57;80.24
77013;BME280;65946;53.130;17.982;2023-01-09T00:23:01;100025.63;;;5.54;80.10
77013;BME280;65946;53.130;17.982;2023-01-09T00:25:28;100027.95;;;5.51;80.03
77013;BME280;65946;53.130;17.982;2023-01-09T00:27:54;100031.43;;;5.51;80.41
77013;BME280;65946;53.130;17.982;2023-01-09T00:30:21;100018.36;;;5.53;80.31
77013;BME280;65946;53.130;17.982;2023-01-09T00:32:48;100018.15;;;5.52;80.23
77013;BME280;65946;53.130;17.982;2023-01-09T00:35:15;100013.63;;;5.50;80.46
77013;BME280;65946;53.130;17.982;2023-01-09T00:37:42;100018.16;;;5.53;80.26
77013;BME280;65946;53.130;17.982;2023-01-09T00:40:10;100012.50;;;5.56;80.09
77013;BME280;65946;53.130;17.982;2023-01-09T00:42:39;100003.08;;;5.58;80.10
77013;BME280;65946;53.130;17.982;2023-01-09T00:45:10;100006.94;;;5.60;79.73
77013;BME280;65946;53.130;17.982;2023-01-09T00:47:44;100008.21;;;5.61;79.99
77013;BME280;65946;53.130;17.982;2023-01-09T00:50:22;100011.39;;;5.60;79.87
77013;BME280;65946;53.130;17.982;2023-01-09T00:52:50;100010.94;;;5.57;80.01
77013;BME280;65946;53.130;17.982;2023-01-09T00:55:18;100008.15;;;5.54;80.00
77013;BME280;65946;53.130;17.982;2023-01-09T00:57:45;100007.60;;;5.51;79.88
77013;BME280;65946;53.130;17.982;2023-01-09T01:00:12;100008.27;;;5.48;80.03
77013;BME280;65946;53.130;17.982;2023-01-09T01:02:38;100004.16;;;5.50;80.18
77013;BME280;65946;53.130;17.982;2023-01-09T01:05:05;100002.22;;;5.51;80.03
77013;BME280;65946;53.130;17.982;2023-01-09T01:07:51;100003.95;;;5.50;79.93
77013;BME280;65946;53.130;17.982;2023-01-09T01:10:19;100005.15;;;5.53;79.85
77013;BME280;65946;53.130;17.982;2023-01-09T01:12:47;100006.98;;;5.55;80.03
77013;BME280;65946;53.130;17.982;2023-01-09T01:15:15;100002.56;;;5.54;79.94
77013;BME280;65946;53.130;17.982;2023-01-09T01:17:42;99996.60;;;5.53;79.91
77013;BME280;65946;53.130;17.982;2023-01-09T01:20:16;99992.11;;;5.49;79.81
77013;BME280;65946;53.130;17.982;2023-01-09T01:22:43;99983.70;;;5.48;79.92
77013;BME280;65946;53.130;17.982;2023-01-09T01:25:11;99985.40;;;5.47;80.02
77013;BME280;65946;53.130;17.982;2023-01-09T01:27:38;99984.59;;;5.46;79.93
77013;BME280;65946;53.130;17.982;2023-01-09T01:30:08;99976.95;;;5.50;79.82
77013;BME280;65946;53.130;17.982;2023-01-09T01:32:36;99970.98;;;5.51;79.76
77013;BME280;65946;53.130;17.982;2023-01-09T01:35:04;99967.23;;;5.49;79.79
77013;BME280;65946;53.130;17.982;2023-01-09T01:37:32;99975.81;;;5.49;79.85
77013;BME280;65946;53.130;17.982;2023-01-09T01:39:59;99977.14;;;5.48;79.67
77013;BME280;65946;53.130;17.982;2023-01-09T01:42:25;99967.05;;;5.46;79.80
77013;BME280;65946;53.130;17.982;2023-01-09T01:45:09;99970.30;;;5.44;79.90
77013;BME280;65946;53.130;17.982;2023-01-09T01:53:18;99964.61;;;5.41;79.99
77013;BME280;65946;53.130;17.982;2023-01-09T01:58:22;99957.10;;;5.46;79.73
77013;BME280;65946;53.130;17.982;2023-01-09T02:00:48;99951.31;;;5.46;79.88
77013;BME280;65946;53.130;17.982;2023-01-09T02:03:18;99952.27;;;5.45;79.85
77013;BME280;65946;53.130;17.982;2023-01-09T02:05:45;99951.88;;;5.46;79.75
77013;BME280;65946;53.130;17.982;2023-01-09T02:08:12;99948.83;;;5.43;79.76
77013;BME280;65946;53.130;17.982;2023-01-09T02:10:39;99944.95;;;5.41;79.92
77013;BME280;65946;53.130;17.982;2023-01-09T02:13:07;99945.10;;;5.39;79.99
77013;BME280;65946;53.130;17.982;2023-01-09T02:18:47;99939.11;;;5.39;79.71
77013;BME280;65946;53.130;17.982;2023-01-09T02:24:16;99946.58;;;5.46;79.71
77013;BME280;65946;53.130;17.982;2023-01-09T02:30:28;99955.54;;;5.47;79.85
77013;BME280;65946;53.130;17.982;2023-01-09T02:35:49;99952.67;;;5.43;79.87
77013;BME280;65946;53.130;17.982;2023-01-09T02:38:32;99948.86;;;5.43;79.90
77013;BME280;65946;53.130;17.982;2023-01-09T02:43:31;99941.11;;;5.47;79.65
77013;BME280;65946;53.130;17.982;2023-01-09T02:45:58;99941.10;;;5.46;79.65
77013;BME280;65946;53.130;17.982;2023-01-09T02:48:24;99944.35;;;5.47;79.64
77013;BME280;65946;53.130;17.982;2023-01-09T02:56:42;99939.80;;;5.45;79.60
77013;BME280;65946;53.130;17.982;2023-01-09T02:59:33;99939.31;;;5.45;79.64
77013;BME280;65946;53.130;17.982;2023-01-09T03:05:23;99929.27;;;5.45;79.64
77013;BME280;65946;53.130;17.982;2023-01-09T03:10:29;99930.63;;;5.49;79.43
77013;BME280;65946;53.130;17.982;2023-01-09T03:13:00;99927.79;;;5.48;79.40
77013;BME280;65946;53.130;17.982;2023-01-09T03:15:32;99921.85;;;5.47;79.50
77013;BME280;65946;53.130;17.982;2023-01-09T03:18:00;99922.55;;;5.47;79.54
77013;BME280;65946;53.130;17.982;2023-01-09T03:20:30;99917.85;;;5.48;79.67
77013;BME280;65946;53.130;17.982;2023-01-09T03:23:03;99916.40;;;5.48;79.62
77013;BME280;65946;53.130;17.982;2023-01-09T03:25:32;99909.17;;;5.47;79.58
77013;BME280;65946;53.130;17.982;2023-01-09T03:28:01;99905.78;;;5.47;79.54
77013;BME280;65946;53.130;17.982;2023-01-09T03:30:30;99903.75;;;5.47;79.44
77013;BME280;65946;53.130;17.982;2023-01-09T03:32:58;99907.13;;;5.51;79.55
77013;BME280;65946;53.130;17.982;2023-01-09T03:35:25;99902.58;;;5.54;79.40
77013;BME280;65946;53.130;17.982;2023-01-09T03:37:52;99900.32;;;5.56;79.26
77013;BME280;65946;53.130;17.982;2023-01-09T03:40:19;99900.23;;;5.56;79.35
77013;BME280;65946;53.130;17.982;2023-01-09T03:42:46;99893.45;;;5.54;79.40
77013;BME280;65946;53.130;17.982;2023-01-09T03:45:13;99894.80;;;5.55;79.38
77013;BME280;65946;53.130;17.982;2023-01-09T03:47:40;99894.44;;;5.55;79.27
77013;BME280;65946;53.130;17.982;2023-01-09T03:50:07;99897.19;;;5.54;79.39
77013;BME280;65946;53.130;17.982;2023-01-09T03:52:34;99893.41;;;5.53;79.52
77013;BME280;65946;53.130;17.982;2023-01-09T03:55:01;99890.13;;;5.52;79.42
77013;BME280;65946;53.130;17.982;2023-01-09T03:57:28;99884.80;;;5.49;79.34
77013;BME280;65946;53.130;17.982;2023-01-09T03:59:55;99881.39;;;5.49;79.38
77013;BME280;65946;53.130;17.982;2023-01-09T04:02:21;99881.19;;;5.49;79.22
77013;BME280;65946;53.130;17.982;2023-01-09T04:04:48;99883.59;;;5.51;79.22
77013;BME280;65946;53.130;17.982;2023-01-09T04:07:14;99887.54;;;5.54;79.29
77013;BME280;65946;53.130;17.982;2023-01-09T04:09:41;99882.09;;;5.57;79.12
77013;BME280;65946;53.130;17.982;2023-01-09T04:12:08;99886.05;;;5.57;79.38
77013;BME280;65946;53.130;17.982;2023-01-09T04:14:34;99881.74;;;5.55;79.06
77013;BME280;65946;53.130;17.982;2023-01-09T04:17:01;99883.02;;;5.50;79.18
77013;BME280;65946;53.130;17.982;2023-01-09T04:19:27;99883.41;;;5.47;79.20
77013;BME280;65946;53.130;17.982;2023-01-09T04:21:54;99883.42;;;5.42;79.30
77013;BME280;65946;53.130;17.982;2023-01-09T04:24:21;99878.74;;;5.41;79.43
77013;BME280;65946;53.130;17.982;2023-01-09T04:26:47;99875.85;;;5.38;79.40
77013;BME280;65946;53.130;17.982;2023-01-09T04:29:14;99871.98;;;5.40;79.23
77013;BME280;65946;53.130;17.982;2023-01-09T04:31:41;99869.52;;;5.41;79.25
77013;BME280;65946;53.130;17.982;2023-01-09T04:34:08;99866.30;;;5.40;79.14
77013;BME280;65946;53.130;17.982;2023-01-09T04:36:34;99868.50;;;5.41;79.34
77013;BME280;65946;53.130;17.982;2023-01-09T04:39:02;99873.29;;;5.42;79.37
77013;BME280;65946;53.130;17.982;2023-01-09T04:41:29;99874.75;;;5.43;79.14
77013;BME280;65946;53.130;17.982;2023-01-09T04:44:15;99871.92;;;5.44;79.29
77013;BME280;65946;53.130;17.982;2023-01-09T04:46:42;99873.02;;;5.47;79.38
77013;BME280;65946;53.130;17.982;2023-01-09T04:49:09;99871.30;;;5.49;79.43
77013;BME280;65946;53.130;17.982;2023-01-09T04:51:35;99875.31;;;5.50;79.35
77013;BME280;65946;53.130;17.982;2023-01-09T04:54:02;99876.04;;;5.49;79.34
77013;BME280;65946;53.130;17.982;2023-01-09T04:56:29;99878.44;;;5.50;79.15
77013;BME280;65946;53.130;17.982;2023-01-09T04:58:56;99879.77;;;5.49;79.11
77013;BME280;65946;53.130;17.982;2023-01-09T05:01:23;99881.59;;;5.49;79.04
77013;BME280;65946;53.130;17.982;2023-01-09T05:03:49;99877.04;;;5.46;79.20
77013;BME280;65946;53.130;17.982;2023-01-09T05:06:16;99870.90;;;5.43;78.98
77013;BME280;65946;53.130;17.982;2023-01-09T05:08:42;99872.42;;;5.41;79.30
77013;BME280;65946;53.130;17.982;2023-01-09T05:11:09;99873.31;;;5.34;79.09
77013;BME280;65946;53.130;17.982;2023-01-09T05:13:36;99864.83;;;5.23;79.40
77013;BME280;65946;53.130;17.982;2023-01-09T05:16:02;99864.38;;;5.12;79.51
77013;BME280;65946;53.130;17.982;2023-01-09T05:18:29;99862.95;;;5.01;79.58
77013;BME280;65946;53.130;17.982;2023-01-09T05:20:56;99864.06;;;4.93;79.69
77013;BME280;65946;53.130;17.982;2023-01-09T05:23:23;99859.78;;;4.88;79.91
77013;BME280;65946;53.130;17.982;2023-01-09T05:25:50;99857.17;;;4.86;80.07
77013;BME280;65946;53.130;17.982;2023-01-09T05:28:16;99856.95;;;4.88;79.85
77013;BME280;65946;53.130;17.982;2023-01-09T05:30:43;99855.15;;;4.91;80.06
77013;BME280;65946;53.130;17.982;2023-01-09T05:33:10;99850.80;;;4.94;79.85
77013;BME280;65946;53.130;17.982;2023-01-09T05:35:36;99849.61;;;4.98;80.01
77013;BME280;65946;53.130;17.982;2023-01-09T05:38:03;99845.02;;;5.01;79.87
77013;BME280;65946;53.130;17.982;2023-01-09T05:40:30;99841.02;;;5.02;79.92
77013;BME280;65946;53.130;17.982;2023-01-09T05:42:56;99838.49;;;5.01;80.07
77013;BME280;65946;53.130;17.982;2023-01-09T05:45:23;99830.76;;;5.00;79.91
77013;BME280;65946;53.130;17.982;2023-01-09T05:47:50;99826.38;;;4.99;80.02
77013;BME280;65946;53.130;17.982;2023-01-09T05:50:17;99829.98;;;4.98;80.13
77013;BME280;65946;53.130;17.982;2023-01-09T05:52:43;99829.52;;;4.94;80.10
77013;BME280;65946;53.130;17.982;2023-01-09T05:55:11;99828.73;;;4.93;80.00
77013;BME280;65946;53.130;17.982;2023-01-09T05:57:39;99824.28;;;4.94;80.04
77013;BME280;65946;53.130;17.982;2023-01-09T06:00:06;99820.56;;;4.96;79.96
77013;BME280;65946;53.130;17.982;2023-01-09T06:02:33;99819.48;;;4.97;80.00
77013;BME280;65946;53.130;17.982;2023-01-09T06:05:00;99821.31;;;5.00;79.91
77013;BME280;65946;53.130;17.982;2023-01-09T06:07:26;99822.04;;;4.98;79.86
77013;BME280;65946;53.130;17.982;2023-01-09T06:09:53;99819.52;;;4.96;79.99
77013;BME280;65946;53.130;17.982;2023-01-09T06:12:19;99818.33;;;4.94;79.93
77013;BME280;65946;53.130;17.982;2023-01-09T06:14:46;99818.43;;;4.91;79.97
77013;BME280;65946;53.130;17.982;2023-01-09T06:17:13;99816.91;;;4.88;79.94
77013;BME280;65946;53.130;17.982;2023-01-09T06:19:39;99812.18;;;4.90;79.83
77013;BME280;65946;53.130;17.982;2023-01-09T06:22:06;99807.59;;;4.91;79.90
77013;BME280;65946;53.130;17.982;2023-01-09T06:24:33;99803.27;;;4.95;79.79
77013;BME280;65946;53.130;17.982;2023-01-09T06:26:59;99800.98;;;4.98;79.83
77013;BME280;65946;53.130;17.982;2023-01-09T06:29:26;99799.22;;;5.01;79.85
77013;BME280;65946;53.130;17.982;2023-01-09T06:31:52;99800.17;;;5.03;80.09
77013;BME280;65946;53.130;17.982;2023-01-09T06:34:19;99799.34;;;5.05;79.96
77013;BME280;65946;53.130;17.982;2023-01-09T06:36:46;99797.02;;;5.05;79.97
77013;BME280;65946;53.130;17.982;2023-01-09T06:39:12;99794.23;;;5.07;79.88
77013;BME280;65946;53.130;17.982;2023-01-09T06:41:39;99789.02;;;5.07;79.75
77013;BME280;65946;53.130;17.982;2023-01-09T06:44:06;99794.74;;;5.03;79.66
77013;BME280;65946;53.130;17.982;2023-01-09T06:46:33;99794.83;;;5.05;79.79
77013;BME280;65946;53.130;17.982;2023-01-09T06:48:59;99795.73;;;5.06;79.69
77013;BME280;65946;53.130;17.982;2023-01-09T06:51:26;99792.56;;;5.04;79.66
77013;BME280;65946;53.130;17.982;2023-01-09T06:53:53;99794.23;;;4.99;79.68
77013;BME280;65946;53.130;17.982;2023-01-09T06:56:19;99798.39;;;4.92;79.74
77013;BME280;65946;53.130;17.982;2023-01-09T06:58:46;99796.48;;;4.86;79.81
77013;BME280;65946;53.130;17.982;2023-01-09T07:01:13;99795.35;;;4.79;79.94
77013;BME280;65946;53.130;17.982;2023-01-09T07:03:39;99796.38;;;4.76;80.07
77013;BME280;65946;53.130;17.982;2023-01-09T07:06:06;99796.84;;;4.74;80.02
77013;BME280;65946;53.130;17.982;2023-01-09T07:08:33;99797.08;;;4.72;80.23
77013;BME280;65946;53.130;17.982;2023-01-09T07:10:59;99792.69;;;4.70;80.12
77013;BME280;65946;53.130;17.982;2023-01-09T07:13:26;99790.65;;;4.73;79.95
77013;BME280;65946;53.130;17.982;2023-01-09T07:15:53;99783.05;;;4.75;79.83
77013;BME280;65946;53.130;17.982;2023-01-09T07:18:20;99782.46;;;4.77;79.78
77013;BME280;65946;53.130;17.982;2023-01-09T07:20:47;99787.86;;;4.78;79.76
77013;BME280;65946;53.130;17.982;2023-01-09T07:23:14;99789.48;;;4.79;79.49
77013;BME280;65946;53.130;17.982;2023-01-09T07:25:41;99790.94;;;4.79;79.68
77013;BME280;65946;53.130;17.982;2023-01-09T07:28:07;99790.75;;;4.76;79.58
77013;BME280;65946;53.130;17.982;2023-01-09T07:30:34;99795.74;;;4.73;79.58
77013;BME280;65946;53.130;17.982;2023-01-09T07:33:01;99799.19;;;4.68;79.46
77013;BME280;65946;53.130;17.982;2023-01-09T07:35:28;99800.02;;;4.67;79.44
77013;BME280;65946;53.130;17.982;2023-01-09T07:37:54;99801.83;;;4.69;79.39
77013;BME280;65946;53.130;17.982;2023-01-09T07:40:21;99804.55;;;4.74;79.47
77013;BME280;65946;53.130;17.982;2023-01-09T07:42:48;99801.71;;;4.80;79.48
77013;BME280;65946;53.130;17.982;2023-01-09T07:45:17;99802.66;;;4.83;79.31
77013;BME280;65946;53.130;17.982;2023-01-09T07:47:44;99802.02;;;4.83;79.11
77013;BME280;65946;53.130;17.982;2023-01-09T07:50:11;99807.58;;;4.79;78.89
77013;BME280;65946;53.130;17.982;2023-01-09T07:52:37;99804.60;;;4.76;79.07
77013;BME280;65946;53.130;17.982;2023-01-09T07:55:04;99806.05;;;4.76;79.22
77013;BME280;65946;53.130;17.982;2023-01-09T07:57:31;99809.63;;;4.78;79.31
77013;BME280;65946;53.130;17.982;2023-01-09T07:59:58;99804.70;;;4.79;79.25
77013;BME280;65946;53.130;17.982;2023-01-09T08:02:26;99806.45;;;4.85;78.95
77013;BME280;65946;53.130;17.982;2023-01-09T08:04:53;99808.45;;;4.89;78.94
77013;BME280;65946;53.130;17.982;2023-01-09T08:07:19;99807.45;;;4.89;78.71
77013;BME280;65946;53.130;17.982;2023-01-09T08:09:46;99809.45;;;4.92;78.78
77013;BME280;65946;53.130;17.982;2023-01-09T08:12:13;99810.00;;;4.96;78.82
77013;BME280;65946;53.130;17.982;2023-01-09T08:14:39;99805.86;;;5.00;78.63
77013;BME280;65946;53.130;17.982;2023-01-09T08:17:06;99809.27;;;4.99;78.51
77013;BME280;65946;53.130;17.982;2023-01-09T08:19:34;99806.30;;;4.99;78.48
77013;BME280;65946;53.130;17.982;2023-01-09T08:22:01;99800.45;;;4.97;78.44
77013;BME280;65946;53.130;17.982;2023-01-09T08:24:28;99798.74;;;4.96;78.28
77013;BME280;65946;53.130;17.982;2023-01-09T08:26:55;99793.77;;;4.96;78.30
77013;BME280;65946;53.130;17.982;2023-01-09T08:29:22;99792.60;;;4.98;78.42
77013;BME280;65946;53.130;17.982;2023-01-09T08:31:49;99781.77;;;5.03;78.35
77013;BME280;65946;53.130;17.982;2023-01-09T08:34:15;99780.08;;;5.08;78.31
77013;BME280;65946;53.130;17.982;2023-01-09T08:36:42;99771.95;;;5.12;78.41
77013;BME280;65946;53.130;17.982;2023-01-09T08:39:09;99772.58;;;5.14;78.31
77013;BME280;65946;53.130;17.982;2023-01-09T08:41:35;99769.52;;;5.16;78.35
77013;BME280;65946;53.130;17.982;2023-01-09T08:44:20;99768.43;;;5.19;78.13
77013;BME280;65946;53.130;17.982;2023-01-09T08:47:06;99758.25;;;5.24;78.18
77013;BME280;65946;53.130;17.982;2023-01-09T08:49:37;99752.89;;;5.32;78.20
77013;BME280;65946;53.130;17.982;2023-01-09T08:52:05;99750.86;;;5.37;77.79
77013;BME280;65946;53.130;17.982;2023-01-09T08:54:33;99745.67;;;5.40;77.78
77013;BME280;65946;53.130;17.982;2023-01-09T08:57:07;99741.71;;;5.41;78.03
77013;BME280;65946;53.130;17.982;2023-01-09T08:59:34;99735.85;;;5.43;77.78
77013;BME280;65946;53.130;17.982;2023-01-09T09:02:01;99736.37;;;5.42;77.67
77013;BME280;65946;53.130;17.982;2023-01-09T09:04:27;99738.20;;;5.42;77.81
77013;BME280;65946;53.130;17.982;2023-01-09T09:06:54;99734.76;;;5.45;77.78
77013;BME280;65946;53.130;17.982;2023-01-09T09:09:21;99734.40;;;5.46;77.84
77013;BME280;65946;53.130;17.982;2023-01-09T09:11:47;99731.70;;;5.51;77.79
77013;BME280;65946;53.130;17.982;2023-01-09T09:14:14;99732.16;;;5.56;77.68
77013;BME280;65946;53.130;17.982;2023-01-09T09:16:59;99733.71;;;5.59;77.51
77013;BME280;65946;53.130;17.982;2023-01-09T09:19:26;99734.04;;;5.60;77.35
77013;BME280;65946;53.130;17.982;2023-01-09T09:21:52;99738.14;;;5.61;77.40
77013;BME280;65946;53.130;17.982;2023-01-09T09:24:19;99734.52;;;5.64;77.45
77013;BME280;65946;53.130;17.982;2023-01-09T09:26:46;99731.41;;;5.65;77.27
77013;BME280;65946;53.130;17.982;2023-01-09T09:29:12;99729.88;;;5.63;77.34
77013;BME280;65946;53.130;17.982;2023-01-09T09:31:39;99732.14;;;5.62;77.53
77013;BME280;65946;53.130;17.982;2023-01-09T09:34:06;99729.10;;;5.63;77.30
77013;BME280;65946;53.130;17.982;2023-01-09T09:36:33;99718.52;;;5.66;77.22
77013;BME280;65946;53.130;17.982;2023-01-09T09:38:59;99712.30;;;5.68;77.12
77013;BME280;65946;53.130;17.982;2023-01-09T09:41:37;99709.98;;;5.69;77.16
77013;BME280;65946;53.130;17.982;2023-01-09T09:52:47;99702.48;;;5.70;77.22
77013;BME280;65946;53.130;17.982;2023-01-09T09:55:34;99699.41;;;5.73;77.31
77013;BME280;65946;53.130;17.982;2023-01-09T09:58:05;99702.58;;;5.77;77.29
77013;BME280;65946;53.130;17.982;2023-01-09T10:00:33;99702.52;;;5.79;77.03
77013;BME280;65946;53.130;17.982;2023-01-09T10:03:03;99702.79;;;5.80;76.92
77013;BME280;65946;53.130;17.982;2023-01-09T10:05:35;99706.97;;;5.82;77.03
77013;BME280;65946;53.130;17.982;2023-01-09T10:11:14;99696.79;;;5.78;76.80
77013;BME280;65946;53.130;17.982;2023-01-09T10:13:43;99696.77;;;5.76;77.00
77013;BME280;65946;53.130;17.982;2023-01-09T10:19:27;99693.46;;;5.76;77.05
77013;BME280;65946;53.130;17.982;2023-01-09T10:22:35;99684.62;;;5.76;77.17
77013;BME280;65946;53.130;17.982;2023-01-09T10:30:34;99677.81;;;5.81;77.14
77013;BME280;65946;53.130;17.982;2023-01-09T10:35:57;99668.52;;;5.77;77.20
77013;BME280;65946;53.130;17.982;2023-01-09T10:38:34;99664.10;;;5.75;77.38
77013;BME280;65946;53.130;17.982;2023-01-09T10:41:17;99665.00;;;5.76;77.54
77013;BME280;65946;53.130;17.982;2023-01-09T10:44:14;99663.17;;;5.74;77.60
77013;BME280;65946;53.130;17.982;2023-01-09T10:46:50;99664.79;;;5.72;77.76
77013;BME280;65946;53.130;17.982;2023-01-09T10:49:18;99670.88;;;5.75;78.17
77013;BME280;65946;53.130;17.982;2023-01-09T10:52:15;99677.77;;;5.77;78.23
77013;BME280;65946;53.130;17.982;2023-01-09T10:54:50;99678.51;;;5.84;78.46
77013;BME280;65946;53.130;17.982;2023-01-09T10:57:39;99679.31;;;5.90;78.55
77013;BME280;65946;53.130;17.982;2023-01-09T11:00:14;99679.61;;;5.93;78.48
77013;BME280;65946;53.130;17.982;2023-01-09T11:02:42;99679.11;;;5.97;78.64
77013;BME280;65946;53.130;17.982;2023-01-09T11:05:17;99680.63;;;5.99;78.52
77013;BME280;65946;53.130;17.982;2023-01-09T11:07:50;99677.17;;;5.97;78.82
77013;BME280;65946;53.130;17.982;2023-01-09T11:10:19;99673.20;;;5.97;78.83
77013;BME280;65946;53.130;17.982;2023-01-09T11:12:45;99670.20;;;5.97;79.11
77013;BME280;65946;53.130;17.982;2023-01-09T11:17:52;99665.09;;;6.01;78.96
77013;BME280;65946;53.130;17.982;2023-01-09T11:20:26;99666.70;;;6.04;79.38
77013;BME280;65946;53.130;17.982;2023-01-09T11:22:55;99664.80;;;6.08;79.50
77013;BME280;65946;53.130;17.982;2023-01-09T11:25:24;99662.77;;;6.10;79.32
77013;BME280;65946;53.130;17.982;2023-01-09T11:30:28;99659.41;;;6.17;79.83
77013;BME280;65946;53.130;17.982;2023-01-09T11:32:57;99656.25;;;6.22;79.83
77013;BME280;65946;53.130;17.982;2023-01-09T11:35:27;99657.66;;;6.22;79.38
77013;BME280;65946;53.130;17.982;2023-01-09T11:38:06;99654.13;;;6.21;79.44
77013;BME280;65946;53.130;17.982;2023-01-09T11:40:46;99656.80;;;6.18;79.40
77013;BME280;65946;53.130;17.982;2023-01-09T11:45:58;99649.88;;;6.17;79.60
77013;BME280;65946;53.130;17.982;2023-01-09T11:48:40;99645.65;;;6.20;79.75
77013;BME280;65946;53.130;17.982;2023-01-09T11:51:19;99643.01;;;6.21;79.90
77013;BME280;65946;53.130;17.982;2023-01-09T11:53:58;99638.04;;;6.24;79.88
77013;BME280;65946;53.130;17.982;2023-01-09T11:56:28;99637.83;;;6.27;80.22
77013;BME280;65946;53.130;17.982;2023-01-09T11:58:55;99640.02;;;6.30;80.94
77013;BME280;65946;53.130;17.982;2023-01-09T12:01:53;99635.46;;;6.33;81.15
77013;BME280;65946;53.130;17.982;2023-01-09T12:07:40;99629.41;;;6.30;80.96
77013;BME280;65946;53.130;17.982;2023-01-09T12:12:58;99634.25;;;6.21;80.85
77013;BME280;65946;53.130;17.982;2023-01-09T12:15:50;99632.10;;;6.22;81.14
77013;BME280;65946;53.130;17.982;2023-01-09T12:23:37;99621.51;;;6.32;81.02
77013;BME280;65946;53.130;17.982;2023-01-09T12:26:15;99618.26;;;6.32;80.73
77013;BME280;65946;53.130;17.982;2023-01-09T12:41:53;99611.58;;;6.19;81.17
77013;BME280;65946;53.130;17.982;2023-01-09T12:47:25;99602.23;;;6.28;81.02
77013;BME280;65946;53.130;17.982;2023-01-09T12:55:42;99594.59;;;6.51;80.48
77013;BME280;65946;53.130;17.982;2023-01-09T12:58:28;99590.11;;;6.56;81.52
77013;BME280;65946;53.130;17.982;2023-01-09T13:00:57;99588.12;;;6.58;81.18
77013;BME280;65946;53.130;17.982;2023-01-09T13:03:38;99593.32;;;6.55;81.11
77013;BME280;65946;53.130;17.982;2023-01-09T13:06:13;99591.34;;;6.52;81.03
77013;BME280;65946;53.130;17.982;2023-01-09T13:08:56;99587.55;;;6.48;81.05
77013;BME280;65946;53.130;17.982;2023-01-09T13:11:39;99583.63;;;6.39;80.77
77013;BME280;65946;53.130;17.982;2023-01-09T13:14:16;99582.72;;;6.30;80.79
77013;BME280;65946;53.130;17.982;2023-01-09T13:16:49;99579.78;;;6.23;81.07
77013;BME280;65946;53.130;17.982;2023-01-09T13:19:32;99575.38;;;6.20;80.93
77013;BME280;65946;53.130;17.982;2023-01-09T13:22:03;99577.70;;;6.19;81.39
77013;BME280;65946;53.130;17.982;2023-01-09T13:27:31;99569.46;;;6.22;81.69
77013;BME280;65946;53.130;17.982;2023-01-09T13:30:39;99570.92;;;6.21;81.55
77013;BME280;65946;53.130;17.982;2023-01-09T13:33:17;99568.27;;;6.22;81.47
77013;BME280;65946;53.130;17.982;2023-01-09T13:36:04;99570.52;;;6.28;81.40
77013;BME280;65946;53.130;17.982;2023-01-09T13:38:33;99581.40;;;6.37;81.31
77013;BME280;65946;53.130;17.982;2023-01-09T13:41:09;99583.63;;;6.40;81.16
77013;BME280;65946;53.130;17.982;2023-01-09T13:44:14;99579.84;;;6.42;81.30
77013;BME280;65946;53.130;17.982;2023-01-09T13:46:47;99584.10;;;6.43;81.08
77013;BME280;65946;53.130;17.982;2023-01-09T13:52:30;99579.87;;;6.33;80.65
77013;BME280;65946;53.130;17.982;2023-01-09T13:54:58;99583.66;;;6.27;80.62
77013;BME280;65946;53.130;17.982;2023-01-09T13:57:26;99588.15;;;6.22;80.83
77013;BME280;65946;53.130;17.982;2023-01-09T14:07:51;99601.48;;;6.16;80.92
77013;BME280;65946;53.130;17.982;2023-01-09T14:10:30;99601.39;;;6.19;81.05
77013;BME280;65946;53.130;17.982;2023-01-09T14:13:05;99602.44;;;6.21;81.08
77013;BME280;65946;53.130;17.982;2023-01-09T14:15:37;99608.29;;;6.20;80.85
77013;BME280;65946;53.130;17.982;2023-01-09T14:18:13;99597.95;;;6.16;81.01
77013;BME280;65946;53.130;17.982;2023-01-09T14:20:44;99602.86;;;6.07;81.20
77013;BME280;65946;53.130;17.982;2023-01-09T14:23:24;99610.73;;;6.01;81.41
77013;BME280;65946;53.130;17.982;2023-01-09T14:25:52;99613.09;;;5.99;81.64
77013;BME280;65946;53.130;17.982;2023-01-09T14:28:22;99616.70;;;5.97;81.37
77013;BME280;65946;53.130;17.982;2023-01-09T14:38:47;99616.41;;;6.03;81.57
77013;BME280;65946;53.130;17.982;2023-01-09T14:41:35;99616.02;;;6.04;81.62
77013;BME280;65946;53.130;17.982;2023-01-09T14:47:09;99623.31;;;5.91;81.76
77013;BME280;65946;53.130;17.982;2023-01-09T14:49:43;99623.01;;;5.85;82.14
77013;BME280;65946;53.130;17.982;2023-01-09T14:54:47;99641.36;;;5.83;82.42
77013;BME280;65946;53.130;17.982;2023-01-09T14:57:24;99642.75;;;5.83;82.71
77013;BME280;65946;53.130;17.982;2023-01-09T15:00:00;99644.94;;;5.87;82.48
77013;BME280;65946;53.130;17.982;2023-01-09T15:02:30;99642.05;;;5.90;82.47
77013;BME280;65946;53.130;17.982;2023-01-09T15:05:05;99634.95;;;5.89;82.31
77013;BME280;65946;53.130;17.982;2023-01-09T15:07:41;99639.39;;;5.87;82.38
77013;BME280;65946;53.130;17.982;2023-01-09T15:12:49;99646.59;;;5.96;82.31
77013;BME280;65946;53.130;17.982;2023-01-09T15:15:17;99650.73;;;5.98;82.51
77013;BME280;65946;53.130;17.982;2023-01-09T15:18:06;99652.31;;;5.98;82.24
77013;BME280;65946;53.130;17.982;2023-01-09T15:20:36;99648.45;;;5.92;82.12
77013;BME280;65946;53.130;17.982;2023-01-09T15:23:02;99640.52;;;5.85;82.20
77013;BME280;65946;53.130;17.982;2023-01-09T15:25:36;99644.61;;;5.82;82.10